F72 weather

Franklin Field
Franklin, California, United States

Public forecast

Using degrees Fahrenheit for public forecast. Weather courtesy of forecast.io.

METAR (pilot weather report)

Closest report is Sacramento Executive Airport, 12.8 nm (23.7 km) NNW. Retrieved 2019/08/25 02:53 UTC (43 minutes ago):

KSAC 250253Z 23007KT 10SM CLR 28/14 A2985 RMK AO2 SLP108 T02830139 53003 $

TAF (pilot weather forecast)

Forecast is more than 12 hours old.

Closest forecast is Sacramento Executive Airport, 12.8 nm (23.7 km) NNW. Retrieved 2019/08/24 00:34 UTC (1 day ago):

TAF KSAC 242332Z 2500/2524 21006KT P6SM SKC FM250600 VRB04KT P6SM SKC